Time;durP1;ratioP1;P1;durP2;ratioP2;P2;SDS_P1;SDS_P2;PMS_P1;PMS_P2;Temp;Humidity;BMP_temperature;BMP_pressure;BME280_temperature;BME280_humidity;BME280_pressure;Samples;Min_cycle;Max_cycle;Signal;HPM_P1;HPM_P2
2023/10/13 00:02:14;;;;;;;26.55;14.55;;;;;;;;;;5126519;27;20171;-58
2023/10/13 00:04:42;;;;;;;20.25;13.40;;;;;;;;;;5126241;27;20079;-58
2023/10/13 00:07:09;;;;;;;23.58;14.32;;;;;;;;;;5127697;27;20506;-57
2023/10/13 00:09:39;;;;;;;23.73;13.32;;;;;;;;;;5126491;27;20083;-58
2023/10/13 00:12:13;;;;;;;26.40;13.90;;;;;;;;;;5126264;27;20047;-59
2023/10/13 00:14:45;;;;;;;25.33;14.68;;;;;;;;;;5126489;27;20063;-55
2023/10/13 00:17:19;;;;;;;28.00;15.05;;;;;;;;;;5106216;27;20052;-58
2023/10/13 00:19:46;;;;;;;22.73;14.15;;;;;;;;;;5124586;27;20052;-57
2023/10/13 00:22:15;;;;;;;28.38;15.18;;;;;;;;;;5126675;27;20208;-58
2023/10/13 00:24:45;;;;;;;23.88;14.05;;;;;;;;;;5125533;27;20457;-58
2023/10/13 00:30:15;;;;;;;24.50;14.95;;;;;;;;;;5126877;27;20467;-56
2023/10/13 00:32:47;;;;;;;23.92;14.85;;;;;;;;;;5125687;27;20051;-58
2023/10/13 00:35:29;;;;;;;30.67;14.93;;;;;;;;;;5126240;27;20441;-56
2023/10/13 00:37:57;;;;;;;24.30;14.07;;;;;;;;;;5126473;27;20052;-58
2023/10/13 00:40:41;;;;;;;24.30;14.05;;;;;;;;;;5125793;27;20429;-59
2023/10/13 00:45:57;;;;;;;24.50;14.35;;;;;;;;;;5105749;28;20075;-56
2023/10/13 00:48:29;;;;;;;24.38;14.82;;;;;;;;;;5124577;27;20562;-58
2023/10/13 00:51:02;;;;;;;25.52;13.02;;;;;;;;;;5126413;27;20051;-58
2023/10/13 00:53:37;;;;;;;25.17;13.48;;;;;;;;;;5125575;27;20506;-58
2023/10/13 00:56:07;;;;;;;20.83;14.00;;;;;;;;;;5126518;27;20672;-58
2023/10/13 00:58:34;;;;;;;23.33;13.98;;;;;;;;;;5126239;27;20052;-55
2023/10/13 01:01:17;;;;;;;24.55;14.77;;;;;;;;;;5125313;27;20486;-57
2023/10/13 01:03:45;;;;;;;28.17;14.88;;;;;;;;;;5125269;27;20540;-58
2023/10/13 01:06:17;;;;;;;28.58;14.93;;;;;;;;;;5125836;27;20063;-58
2023/10/13 01:08:45;;;;;;;27.60;15.05;;;;;;;;;;5125264;27;20047;-58
2023/10/13 01:11:13;;;;;;;26.67;15.32;;;;;;;;;;5125427;27;20494;-59
2023/10/13 01:13:41;;;;;;;26.67;14.65;;;;;;;;;;5125435;27;20103;-57
2023/10/13 01:16:08;;;;;;;25.10;14.55;;;;;;;;;;5125672;27;20051;-56
2023/10/13 01:18:47;;;;;;;23.25;14.60;;;;;;;;;;5125997;27;20051;-58
2023/10/13 01:21:20;;;;;;;27.67;15.35;;;;;;;;;;5125802;27;20048;-58
2023/10/13 01:23:47;;;;;;;25.35;15.05;;;;;;;;;;5124676;27;20132;-59
2023/10/13 01:26:21;;;;;;;27.55;15.70;;;;;;;;;;5125960;27;20134;-59
2023/10/13 01:28:50;;;;;;;22.38;13.55;;;;;;;;;;5125058;27;20058;-55
2023/10/13 01:31:37;;;;;;;23.35;14.13;;;;;;;;;;5125223;27;20047;-56
2023/10/13 01:34:04;;;;;;;22.67;14.18;;;;;;;;;;5125653;27;20055;-59
2023/10/13 01:36:35;;;;;;;22.30;14.27;;;;;;;;;;5125057;27;20051;-59
2023/10/13 01:39:02;;;;;;;23.05;14.65;;;;;;;;;;5125109;27;20067;-58
2023/10/13 01:41:30;;;;;;;23.15;14.30;;;;;;;;;;5124602;27;20052;-58
2023/10/13 01:43:57;;;;;;;22.23;15.07;;;;;;;;;;5125118;27;20338;-58
2023/10/13 01:46:23;;;;;;;25.38;15.43;;;;;;;;;;5124035;27;20505;-58
2023/10/13 01:48:54;;;;;;;23.35;14.93;;;;;;;;;;5125159;27;20058;-58
2023/10/13 01:51:23;;;;;;;23.23;15.35;;;;;;;;;;5124674;27;20055;-57
2023/10/13 01:53:56;;;;;;;25.65;16.08;;;;;;;;;;5124658;27;20081;-57
2023/10/13 01:56:29;;;;;;;23.52;16.05;;;;;;;;;;5124804;27;20048;-58
2023/10/13 01:58:56;;;;;;;23.55;16.60;;;;;;;;;;5125345;27;20059;-58
2023/10/13 02:01:29;;;;;;;24.83;15.27;;;;;;;;;;5124093;27;20138;-57
2023/10/13 02:04:03;;;;;;;24.23;15.38;;;;;;;;;;5124607;27;20081;-58
2023/10/13 02:06:32;;;;;;;22.42;15.23;;;;;;;;;;5123958;27;20058;-57
2023/10/13 02:09:10;;;;;;;26.77;15.55;;;;;;;;;;5124883;27;20056;-58
2023/10/13 02:11:37;;;;;;;22.98;15.15;;;;;;;;;;5124782;27;20514;-58
2023/10/13 02:14:04;;;;;;;24.52;14.77;;;;;;;;;;5123446;27;20055;-59
2023/10/13 02:16:31;;;;;;;21.95;14.45;;;;;;;;;;5124256;27;20054;-58
2023/10/13 02:19:03;;;;;;;21.55;13.15;;;;;;;;;;5124503;27;20052;-57
2023/10/13 02:21:31;;;;;;;18.05;13.43;;;;;;;;;;5124210;27;20066;-58
2023/10/13 02:24:03;;;;;;;27.77;14.32;;;;;;;;;;5124301;27;20063;-58
2023/10/13 02:26:30;;;;;;;21.05;14.32;;;;;;;;;;5123585;27;20503;-57
2023/10/13 02:29:07;;;;;;;17.92;12.50;;;;;;;;;;5117140;27;20876;-56
2023/10/13 02:31:37;;;;;;;19.67;12.98;;;;;;;;;;5124662;27;20213;-57
2023/10/13 02:34:07;;;;;;;22.85;13.15;;;;;;;;;;5124726;27;20051;-59
2023/10/13 02:36:37;;;;;;;21.65;13.48;;;;;;;;;;5124098;27;20048;-58
2023/10/13 02:39:07;;;;;;;19.42;12.90;;;;;;;;;;5125004;27;20051;-58
2023/10/13 02:41:37;;;;;;;19.75;12.77;;;;;;;;;;5124574;27;20490;-58
2023/10/13 02:44:19;;;;;;;19.55;12.32;;;;;;;;;;5124678;27;20059;-55
2023/10/13 02:46:50;;;;;;;19.17;12.60;;;;;;;;;;5124676;27;20055;-56
2023/10/13 02:49:19;;;;;;;19.52;11.82;;;;;;;;;;5124008;27;20059;-59
2023/10/13 02:51:46;;;;;;;16.45;10.75;;;;;;;;;;5124068;27;20543;-56
2023/10/13 02:54:18;;;;;;;19.52;12.30;;;;;;;;;;5124103;27;20353;-58
2023/10/13 02:56:57;;;;;;;17.58;12.35;;;;;;;;;;5123892;27;20093;-56
2023/10/13 03:02:17;;;;;;;17.83;11.70;;;;;;;;;;5123526;27;20494;-57
2023/10/13 03:04:46;;;;;;;21.83;11.80;;;;;;;;;;5123284;27;20047;-58
2023/10/13 03:07:15;;;;;;;19.38;12.35;;;;;;;;;;5124321;27;20051;-59
2023/10/13 03:09:50;;;;;;;22.75;11.55;;;;;;;;;;5123898;27;20131;-58
2023/10/13 03:12:17;;;;;;;18.38;12.23;;;;;;;;;;5124470;27;20379;-57
2023/10/13 03:14:56;;;;;;;20.05;12.82;;;;;;;;;;5122831;27;20128;-57
2023/10/13 03:17:33;;;;;;;21.75;12.30;;;;;;;;;;5124008;27;20056;-59
2023/10/13 03:20:00;;;;;;;25.55;12.30;;;;;;;;;;5123809;27;20059;-58
2023/10/13 03:22:33;;;;;;;23.10;13.07;;;;;;;;;;5123648;27;20143;-58
2023/10/13 03:25:07;;;;;;;23.40;12.25;;;;;;;;;;5123622;27;20078;-58
2023/10/13 03:30:15;;;;;;;20.48;11.95;;;;;;;;;;5124403;27;20101;-59
2023/10/13 03:32:47;;;;;;;25.40;12.98;;;;;;;;;;5102974;27;20086;-56
2023/10/13 03:35:23;;;;;;;22.00;12.63;;;;;;;;;;5103753;27;20544;-59
2023/10/13 03:37:54;;;;;;;19.17;11.95;;;;;;;;;;5102718;27;20067;-57
2023/10/13 03:45:25;;;;;;;20.52;11.43;;;;;;;;;;5123591;27;20143;-58
2023/10/13 03:47:51;;;;;;;17.20;11.20;;;;;;;;;;5123178;27;20087;-58
2023/10/13 03:50:29;;;;;;;18.75;12.32;;;;;;;;;;5121782;27;20494;-60
2023/10/13 03:52:57;;;;;;;16.70;10.80;;;;;;;;;;5123840;27;20491;-59
2023/10/13 03:55:26;;;;;;;19.20;10.85;;;;;;;;;;5123182;27;20105;-58
2023/10/13 03:57:53;;;;;;;14.02;10.70;;;;;;;;;;5122764;27;20056;-59
2023/10/13 04:00:25;;;;;;;20.80;11.45;;;;;;;;;;5122164;27;20105;-59
2023/10/13 04:03:03;;;;;;;16.15;10.55;;;;;;;;;;5122861;27;20052;-57
2023/10/13 04:05:42;;;;;;;21.58;10.95;;;;;;;;;;5121675;27;20052;-60
2023/10/13 04:24:18;;;;;;;14.60;9.30;;;;;;;;;;5126701;27;20135;-60
2023/10/13 04:32:15;;;;;;;17.38;9.73;;;;;;;;;;5126397;27;20346;-59
2023/10/13 04:34:51;;;;;;;14.13;9.98;;;;;;;;;;5126248;27;20139;-60
2023/10/13 04:37:29;;;;;;;20.52;10.88;;;;;;;;;;5126880;27;20063;-58
2023/10/13 04:39:59;;;;;;;15.82;9.63;;;;;;;;;;5126606;27;20052;-59
2023/10/13 04:50:45;;;;;;;10.88;8.57;;;;;;;;;;5127538;27;20055;-59
2023/10/13 06:28:40;;;;;;;15.27;6.75;;;;;;;;;;5124902;27;20056;-55
2023/10/13 06:31:12;;;;;;;10.93;5.45;;;;;;;;;;5123495;27;20518;-57
2023/10/13 06:33:45;;;;;;;12.85;5.78;;;;;;;;;;5123818;27;20765;-56
2023/10/13 06:36:11;;;;;;;16.10;6.13;;;;;;;;;;5124822;27;20063;-57
2023/10/13 06:38:37;;;;;;;13.32;6.75;;;;;;;;;;5124325;27;20055;-52
2023/10/13 06:41:07;;;;;;;12.23;7.00;;;;;;;;;;5116203;27;20463;-56
2023/10/13 06:43:42;;;;;;;19.67;7.55;;;;;;;;;;5131770;27;20047;-55
2023/10/13 06:46:23;;;;;;;19.90;7.22;;;;;;;;;;5145254;27;20147;-57
2023/10/13 06:48:53;;;;;;;13.02;7.00;;;;;;;;;;5124470;27;20495;-57
2023/10/13 06:51:25;;;;;;;10.63;7.03;;;;;;;;;;5124278;27;20052;-59
2023/10/13 06:53:56;;;;;;;13.88;7.65;;;;;;;;;;5122839;27;20055;-59
2023/10/13 06:56:28;;;;;;;14.35;7.53;;;;;;;;;;5122636;27;20161;-59
2023/10/13 06:59:04;;;;;;;13.43;7.95;;;;;;;;;;5104150;27;20102;-58
2023/10/13 07:01:38;;;;;;;12.52;7.97;;;;;;;;;;5118870;27;20594;-58
2023/10/13 07:04:12;;;;;;;17.20;9.35;;;;;;;;;;5142334;27;20047;-58
2023/10/13 07:06:44;;;;;;;15.90;8.95;;;;;;;;;;5129303;27;20108;-56
2023/10/13 07:09:28;;;;;;;13.73;9.38;;;;;;;;;;5124540;27;20051;-56
2023/10/13 07:11:54;;;;;;;19.30;10.43;;;;;;;;;;5135744;27;20048;-57
2023/10/13 07:14:20;;;;;;;20.60;12.13;;;;;;;;;;5119726;27;20056;-56
2023/10/13 07:17:04;;;;;;;17.02;11.70;;;;;;;;;;5127304;27;20138;-58
2023/10/13 07:19:31;;;;;;;18.50;12.00;;;;;;;;;;5123704;27;20502;-55
2023/10/13 07:21:59;;;;;;;16.85;13.05;;;;;;;;;;5134442;27;20054;-57
2023/10/13 07:24:31;;;;;;;16.65;12.52;;;;;;;;;;5131714;27;20117;-57
2023/10/13 07:27:05;;;;;;;18.52;13.02;;;;;;;;;;5123569;27;20059;-57
2023/10/13 07:29:35;;;;;;;18.52;12.27;;;;;;;;;;5123954;27;20055;-57
2023/10/13 07:32:12;;;;;;;19.58;13.18;;;;;;;;;;5117729;27;20484;-58
2023/10/13 07:34:39;;;;;;;22.50;13.43;;;;;;;;;;5124182;27;20060;-59
2023/10/13 07:37:12;;;;;;;21.77;12.52;;;;;;;;;;5123696;27;20081;-57
2023/10/13 07:39:40;;;;;;;17.27;11.40;;;;;;;;;;5122723;27;20050;-56
2023/10/13 07:42:19;;;;;;;20.45;11.70;;;;;;;;;;5134005;27;20047;-56
2023/10/13 07:44:45;;;;;;;16.80;11.73;;;;;;;;;;5147215;27;20165;-57
2023/10/13 07:47:14;;;;;;;15.43;9.98;;;;;;;;;;5147145;27;20101;-57
2023/10/13 07:49:41;;;;;;;16.10;9.65;;;;;;;;;;5142376;27;20586;-57
2023/10/13 07:52:23;;;;;;;16.95;9.88;;;;;;;;;;5148248;27;20132;-57
2023/10/13 07:55:32;;;;;;;17.65;8.95;;;;;;;;;;5141673;27;20135;-57
2023/10/13 07:57:54;;;;;;;13.98;8.98;;;;;;;;;;5105052;28;20083;-55
2023/10/13 08:08:55;;;;;;;13.95;7.75;;;;;;;;;;5042802;28;20045;-56
2023/10/13 08:13:59;;;;;;;16.73;8.07;;;;;;;;;;5042192;28;20050;-54
2023/10/13 08:19:27;;;;;;;18.08;6.50;;;;;;;;;;5042328;28;20057;-57
2023/10/13 08:21:58;;;;;;;13.27;7.03;;;;;;;;;;5048427;28;20068;-57
2023/10/13 08:24:55;;;;;;;13.68;6.53;;;;;;;;;;5061005;28;20207;-56
2023/10/13 08:43:09;;;;;;;18.60;6.38;;;;;;;;;;5082230;27;20054;-57
2023/10/13 08:48:12;;;;;;;13.85;6.07;;;;;;;;;;5134189;27;20425;-57
2023/10/13 08:53:31;;;;;;;15.32;6.22;;;;;;;;;;5126996;27;20109;-57
2023/10/13 09:15:17;;;;;;;15.73;4.82;;;;;;;;;;5125056;27;20054;-58
2023/10/13 09:18:42;;;;;;;14.88;6.00;;;;;;;;;;5146706;27;20501;-57
2023/10/13 09:20:35;;;;;;;13.18;5.60;;;;;;;;;;5137584;27;20497;-57
2023/10/13 09:25:38;;;;;;;14.80;5.63;;;;;;;;;;5146146;27;20058;-57
2023/10/13 09:28:14;;;;;;;12.15;6.07;;;;;;;;;;5135110;27;20142;-55
2023/10/13 09:30:45;;;;;;;16.17;5.93;;;;;;;;;;5112998;27;20521;-55
2023/10/13 09:33:20;;;;;;;12.88;5.68;;;;;;;;;;5114338;27;20079;-57
2023/10/13 09:35:50;;;;;;;17.00;5.85;;;;;;;;;;5141943;27;20058;-57
2023/10/13 09:38:17;;;;;;;10.82;4.90;;;;;;;;;;5131699;27;20472;-53
2023/10/13 09:40:49;;;;;;;16.60;6.03;;;;;;;;;;5124107;27;20101;-57
2023/10/13 09:43:17;;;;;;;14.55;5.15;;;;;;;;;;5125807;27;20059;-57
2023/10/13 09:46:07;;;;;;;10.95;5.93;;;;;;;;;;5123913;27;20150;-57
2023/10/13 09:48:35;;;;;;;14.95;5.32;;;;;;;;;;5125441;27;20047;-57
2023/10/13 09:51:04;;;;;;;14.88;6.00;;;;;;;;;;5123890;27;20205;-55
2023/10/13 09:53:32;;;;;;;19.60;5.22;;;;;;;;;;5125215;27;20052;-56
2023/10/13 09:56:11;;;;;;;7.43;5.50;;;;;;;;;;5124820;27;20056;-56
2023/10/13 09:58:47;;;;;;;11.77;5.53;;;;;;;;;;5124963;27;20062;-57
2023/10/13 10:01:20;;;;;;;11.18;5.60;;;;;;;;;;5124724;27;20059;-58
2023/10/13 10:04:07;;;;;;;17.05;5.55;;;;;;;;;;5125657;27;20064;-56
2023/10/13 10:06:45;;;;;;;14.90;6.13;;;;;;;;;;5123787;27;20052;-58
2023/10/13 10:09:12;;;;;;;15.93;5.97;;;;;;;;;;5124992;27;20105;-57
2023/10/13 10:11:54;;;;;;;15.05;5.30;;;;;;;;;;5124525;27;20060;-58
2023/10/13 10:14:44;;;;;;;11.40;4.97;;;;;;;;;;5124787;27;20047;-56
2023/10/13 10:17:11;;;;;;;14.52;5.50;;;;;;;;;;5121145;27;20055;-58
2023/10/13 10:19:55;;;;;;;15.52;6.22;;;;;;;;;;5145066;27;20047;-57
2023/10/13 10:22:33;;;;;;;9.23;5.35;;;;;;;;;;5145742;27;20459;-58
2023/10/13 10:25:00;;;;;;;14.43;6.32;;;;;;;;;;5145734;27;20092;-58
2023/10/13 10:27:33;;;;;;;15.05;5.82;;;;;;;;;;5145889;27;20059;-56
2023/10/13 10:30:00;;;;;;;15.25;5.50;;;;;;;;;;5130482;27;20051;-57
2023/10/13 10:32:34;;;;;;;15.32;6.25;;;;;;;;;;5115906;27;20055;-55
2023/10/13 10:35:07;;;;;;;14.38;6.43;;;;;;;;;;5106204;27;20047;-55
2023/10/13 10:37:34;;;;;;;10.05;5.65;;;;;;;;;;5111272;27;20055;-57
2023/10/13 10:40:03;;;;;;;15.02;6.13;;;;;;;;;;5125543;27;20055;-56
2023/10/13 10:42:29;;;;;;;19.02;5.85;;;;;;;;;;5112069;27;20340;-57
2023/10/13 10:44:58;;;;;;;7.97;5.63;;;;;;;;;;5113855;27;20143;-58
2023/10/13 10:47:38;;;;;;;18.92;6.60;;;;;;;;;;5123402;27;20059;-57
2023/10/13 10:50:18;;;;;;;12.98;5.78;;;;;;;;;;5123337;27;20478;-58
2023/10/13 10:52:46;;;;;;;11.77;5.93;;;;;;;;;;5122437;27;20097;-58
2023/10/13 10:55:14;;;;;;;14.82;5.82;;;;;;;;;;5118452;27;20048;-57
2023/10/13 10:57:43;;;;;;;14.45;6.07;;;;;;;;;;5122566;27;20525;-56
2023/10/13 11:00:20;;;;;;;14.73;6.18;;;;;;;;;;5103206;28;20060;-56
2023/10/13 11:02:56;;;;;;;13.15;6.57;;;;;;;;;;5116564;27;20526;-58
2023/10/13 11:05:32;;;;;;;16.27;5.75;;;;;;;;;;5113226;27;20054;-58
2023/10/13 11:07:58;;;;;;;19.17;5.93;;;;;;;;;;5105274;27;20058;-59
2023/10/13 11:10:28;;;;;;;18.00;6.68;;;;;;;;;;5123708;27;20047;-58
2023/10/13 11:13:16;;;;;;;16.92;5.63;;;;;;;;;;5121094;27;20056;-58
2023/10/13 11:15:44;;;;;;;16.58;5.65;;;;;;;;;;5107758;27;20052;-58
2023/10/13 11:18:20;;;;;;;12.93;6.10;;;;;;;;;;5102826;27;20355;-57
2023/10/13 11:20:54;;;;;;;13.95;6.43;;;;;;;;;;5120257;27;20146;-56
2023/10/13 11:23:25;;;;;;;14.98;5.78;;;;;;;;;;5106908;27;20602;-58
2023/10/13 11:25:59;;;;;;;21.05;6.50;;;;;;;;;;5105860;27;20056;-57
2023/10/13 11:28:28;;;;;;;14.45;5.70;;;;;;;;;;5118250;27;20529;-58
2023/10/13 11:30:58;;;;;;;15.52;5.78;;;;;;;;;;5131242;27;20048;-58
2023/10/13 11:33:29;;;;;;;16.02;5.72;;;;;;;;;;5118276;27;20064;-58
2023/10/13 11:35:56;;;;;;;11.50;6.45;;;;;;;;;;5126932;27;20055;-55
2023/10/13 11:41:19;;;;;;;9.77;5.45;;;;;;;;;;5116845;27;20560;-58
2023/10/13 11:46:48;;;;;;;14.52;5.93;;;;;;;;;;5128747;27;20048;-57
2023/10/13 11:49:32;;;;;;;13.40;5.30;;;;;;;;;;5105769;27;20294;-58
2023/10/13 11:52:25;;;;;;;13.50;5.30;;;;;;;;;;5107170;27;20052;-58
2023/10/13 11:54:46;;;;;;;16.55;5.88;;;;;;;;;;5118405;27;20067;-59
2023/10/13 11:57:16;;;;;;;14.18;6.00;;;;;;;;;;5125265;27;20066;-57
2023/10/13 11:59:46;;;;;;;19.92;5.38;;;;;;;;;;5126068;27;20093;-58
2023/10/13 12:04:51;;;;;;;13.50;5.68;;;;;;;;;;5126014;27;20055;-58
2023/10/13 12:07:20;;;;;;;14.35;5.97;;;;;;;;;;5126916;27;20557;-59
2023/10/13 12:10:03;;;;;;;11.73;5.57;;;;;;;;;;5127561;27;20589;-58
2023/10/13 12:12:30;;;;;;;21.67;7.03;;;;;;;;;;5116018;27;20514;-58
2023/10/13 12:14:57;;;;;;;16.13;6.20;;;;;;;;;;5125679;27;20055;-58
2023/10/13 12:17:34;;;;;;;19.42;5.72;;;;;;;;;;5121239;27;20055;-57
2023/10/13 12:20:05;;;;;;;18.33;5.50;;;;;;;;;;5126339;27;20047;-58
2023/10/13 12:22:35;;;;;;;18.70;6.32;;;;;;;;;;5114645;27;20090;-58
2023/10/13 12:25:18;;;;;;;18.15;6.00;;;;;;;;;;5117099;27;20048;-58
2023/10/13 12:27:48;;;;;;;18.92;5.95;;;;;;;;;;5119243;27;20056;-59
2023/10/13 12:30:22;;;;;;;20.95;6.53;;;;;;;;;;5114163;27;20052;-56
2023/10/13 12:33:08;;;;;;;17.90;6.75;;;;;;;;;;5105487;27;20056;-58
2023/10/13 12:35:44;;;;;;;17.40;5.93;;;;;;;;;;5124142;27;20131;-58
2023/10/13 12:38:36;;;;;;;14.52;6.18;;;;;;;;;;5111798;27;20056;-57
2023/10/13 12:48:56;;;;;;;13.45;6.00;;;;;;;;;;5117928;27;20057;-58
2023/10/13 12:52:20;;;;;;;15.32;5.75;;;;;;;;;;5113850;27;20114;-58
2023/10/13 12:57:25;;;;;;;15.68;5.90;;;;;;;;;;5110818;27;20055;-59
2023/10/13 12:59:53;;;;;;;14.27;5.50;;;;;;;;;;5104426;27;20146;-55
2023/10/13 13:02:26;;;;;;;15.15;5.93;;;;;;;;;;5106357;27;20055;-58
2023/10/13 13:05:11;;;;;;;13.90;5.75;;;;;;;;;;5125559;27;20058;-59
2023/10/13 13:07:47;;;;;;;;;;;;;;;;;;5126050;27;20389;-59
2023/10/13 13:10:16;;;;;;;13.32;5.85;;;;;;;;;;5122444;27;42546;-59
2023/10/13 13:12:43;;;;;;;16.60;6.43;;;;;;;;;;5124321;27;20528;-61
2023/10/13 13:15:11;;;;;;;14.63;6.55;;;;;;;;;;5125143;27;20377;-59
2023/10/13 13:17:38;;;;;;;13.55;5.45;;;;;;;;;;5125099;27;20062;-59
2023/10/13 13:20:11;;;;;;;17.52;6.53;;;;;;;;;;5123569;27;22215;-59
2023/10/13 13:22:38;;;;;;;11.55;6.15;;;;;;;;;;5128674;27;20043;-59
2023/10/13 13:25:08;;;;;;;17.13;6.35;;;;;;;;;;5125382;27;20063;-57
2023/10/13 13:27:36;;;;;;;20.65;7.10;;;;;;;;;;5124132;27;20151;-58
2023/10/13 13:30:11;;;;;;;13.63;6.00;;;;;;;;;;5125946;27;20597;-59
2023/10/13 13:32:40;;;;;;;17.52;7.20;;;;;;;;;;5125380;27;20101;-60
2023/10/13 13:35:08;;;;;;;11.85;6.38;;;;;;;;;;5117936;27;20537;-60
2023/10/13 13:37:37;;;;;;;17.48;6.88;;;;;;;;;;5104482;27;20178;-58
2023/10/13 13:40:18;;;;;;;15.88;6.88;;;;;;;;;;5103213;27;20056;-57
2023/10/13 13:42:45;;;;;;;19.98;6.90;;;;;;;;;;5115810;27;20137;-59
2023/10/13 13:45:34;;;;;;;13.73;6.50;;;;;;;;;;5124481;27;20058;-58
2023/10/13 13:48:07;;;;;;;19.13;7.28;;;;;;;;;;5123834;27;20078;-60
2023/10/13 13:50:40;;;;;;;17.02;6.93;;;;;;;;;;5116927;27;20091;-59
2023/10/13 13:53:11;;;;;;;14.50;5.82;;;;;;;;;;5106043;27;20431;-59
2023/10/13 13:55:39;;;;;;;15.82;6.30;;;;;;;;;;5124964;27;20561;-59
2023/10/13 13:58:08;;;;;;;14.75;7.43;;;;;;;;;;5118189;27;20060;-59
2023/10/13 14:00:37;;;;;;;14.68;6.80;;;;;;;;;;5111382;27;20048;-60
2023/10/13 14:03:05;;;;;;;19.33;7.53;;;;;;;;;;5110485;27;20055;-58
2023/10/13 14:05:32;;;;;;;21.20;7.70;;;;;;;;;;5108989;27;20055;-59
2023/10/13 14:07:59;;;;;;;17.08;7.60;;;;;;;;;;5119568;27;20509;-58
2023/10/13 14:10:31;;;;;;;16.10;7.30;;;;;;;;;;5123131;27;20074;-58
2023/10/13 14:13:06;;;;;;;15.25;6.45;;;;;;;;;;5121633;27;20530;-59
2023/10/13 14:15:39;;;;;;;;;;;;;;;;;;5120867;27;20514;-58
2023/10/13 14:18:07;;;;;;;14.63;6.70;;;;;;;;;;5121850;27;43897;-58
2023/10/13 14:20:39;;;;;;;16.55;8.02;;;;;;;;;;5122664;27;20052;-59
2023/10/13 14:23:08;;;;;;;20.98;7.03;;;;;;;;;;5117196;27;20147;-59
2023/10/13 14:25:38;;;;;;;17.77;6.82;;;;;;;;;;5115819;27;20501;-59
2023/10/13 14:28:05;;;;;;;18.42;7.20;;;;;;;;;;5119723;27;20083;-59
2023/10/13 14:30:32;;;;;;;16.75;7.13;;;;;;;;;;5118487;27;20047;-53
2023/10/13 14:32:59;;;;;;;18.15;7.30;;;;;;;;;;5121186;27;20063;-59
2023/10/13 14:35:26;;;;;;;14.57;7.40;;;;;;;;;;5122616;27;20062;-58
2023/10/13 14:37:52;;;;;;;19.92;8.32;;;;;;;;;;5121536;27;20048;-57
2023/10/13 14:40:21;;;;;;;17.38;7.78;;;;;;;;;;5116351;27;20079;-57
2023/10/13 14:42:48;;;;;;;18.33;7.15;;;;;;;;;;5119940;27;20058;-59
2023/10/13 14:45:16;;;;;;;15.68;8.00;;;;;;;;;;5121538;27;20078;-57
2023/10/13 14:47:43;;;;;;;16.48;8.40;;;;;;;;;;5121096;27;20054;-59
2023/10/13 14:50:17;;;;;;;15.38;8.90;;;;;;;;;;5121828;27;20047;-58
2023/10/13 14:52:43;;;;;;;16.45;8.15;;;;;;;;;;5122485;27;20056;-57
2023/10/13 14:55:18;;;;;;;15.55;8.05;;;;;;;;;;5116843;27;20494;-57
2023/10/13 14:57:49;;;;;;;20.77;8.68;;;;;;;;;;5123248;27;20101;-57
2023/10/13 15:00:24;;;;;;;14.15;7.90;;;;;;;;;;5118714;27;20059;-58
2023/10/13 15:02:52;;;;;;;21.20;9.10;;;;;;;;;;5121466;27;20056;-58
2023/10/13 15:05:20;;;;;;;16.38;8.50;;;;;;;;;;5115640;27;20059;-59
2023/10/13 15:07:46;;;;;;;19.58;8.43;;;;;;;;;;5122415;27;20098;-56
2023/10/13 15:10:16;;;;;;;23.63;9.60;;;;;;;;;;5121054;27;20052;-57
2023/10/13 15:12:46;;;;;;;13.77;8.65;;;;;;;;;;5120323;27;21053;-59
2023/10/13 15:15:19;;;;;;;22.30;9.43;;;;;;;;;;5117359;27;20058;-56
2023/10/13 15:17:47;;;;;;;19.88;9.27;;;;;;;;;;5116187;27;20106;-58
2023/10/13 15:20:16;;;;;;;18.95;8.88;;;;;;;;;;5118206;27;20434;-56
2023/10/13 15:22:43;;;;;;;24.08;10.32;;;;;;;;;;5122202;27;20054;-55
2023/10/13 15:25:28;;;;;;;17.35;9.10;;;;;;;;;;5118311;27;20551;-58
2023/10/13 15:28:02;;;;;;;24.13;11.13;;;;;;;;;;5103871;27;20335;-57
2023/10/13 15:30:45;;;;;;;18.13;9.25;;;;;;;;;;5106512;27;20152;-55
2023/10/13 15:33:12;;;;;;;16.67;7.90;;;;;;;;;;5114690;27;20048;-59
2023/10/13 15:35:42;;;;;;;23.42;10.05;;;;;;;;;;5120007;27;20541;-57
2023/10/13 15:38:12;;;;;;;19.05;8.57;;;;;;;;;;5118876;27;20075;-57
2023/10/13 15:40:42;;;;;;;17.25;8.07;;;;;;;;;;5122569;27;20052;-58
2023/10/13 15:43:09;;;;;;;16.52;8.35;;;;;;;;;;5121361;27;20506;-57
2023/10/13 15:45:45;;;;;;;16.85;8.63;;;;;;;;;;5121967;27;20060;-57
2023/10/13 15:48:16;;;;;;;21.08;9.02;;;;;;;;;;5121124;27;20052;-58
2023/10/13 15:50:49;;;;;;;18.05;8.98;;;;;;;;;;5122114;27;20079;-56
2023/10/13 15:53:16;;;;;;;29.10;9.02;;;;;;;;;;5119070;27;20087;-57
2023/10/13 15:55:45;;;;;;;15.82;7.38;;;;;;;;;;5118158;27;20105;-56
2023/10/13 15:58:13;;;;;;;16.85;7.43;;;;;;;;;;5123274;27;20063;-57
2023/10/13 16:00:39;;;;;;;20.27;8.50;;;;;;;;;;5117690;27;20078;-59
2023/10/13 16:03:10;;;;;;;15.90;8.13;;;;;;;;;;5120886;27;20055;-58
2023/10/13 16:05:39;;;;;;;17.30;7.60;;;;;;;;;;5118755;27;20665;-58
2023/10/13 16:08:10;;;;;;;12.85;7.32;;;;;;;;;;5122525;27;20142;-58
2023/10/13 16:10:38;;;;;;;14.48;7.88;;;;;;;;;;5124490;27;20063;-59
2023/10/13 16:13:07;;;;;;;15.55;7.53;;;;;;;;;;5118856;27;20055;-58
2023/10/13 16:15:37;;;;;;;21.15;8.10;;;;;;;;;;5125236;27;20479;-59
2023/10/13 16:18:06;;;;;;;19.63;8.70;;;;;;;;;;5124885;27;20086;-59
2023/10/13 16:20:34;;;;;;;15.60;7.65;;;;;;;;;;5124723;27;20054;-56
2023/10/13 16:23:01;;;;;;;18.15;8.57;;;;;;;;;;5122618;27;20478;-58
2023/10/13 16:25:27;;;;;;;20.77;8.43;;;;;;;;;;5124708;27;20097;-57
2023/10/13 16:27:54;;;;;;;22.23;9.65;;;;;;;;;;5124747;27;20051;-58
2023/10/13 16:30:20;;;;;;;17.63;8.18;;;;;;;;;;5122485;27;20048;-57
2023/10/13 16:32:47;;;;;;;19.77;8.40;;;;;;;;;;5118080;27;20528;-58
2023/10/13 16:35:16;;;;;;;14.75;7.63;;;;;;;;;;5121828;27;20052;-57
2023/10/13 16:37:47;;;;;;;12.27;8.23;;;;;;;;;;5126115;27;20602;-60
2023/10/13 16:40:18;;;;;;;18.75;8.30;;;;;;;;;;5119622;27;20063;-58
2023/10/13 16:42:45;;;;;;;18.38;7.55;;;;;;;;;;5120323;27;20241;-58
2023/10/13 16:45:14;;;;;;;15.02;7.75;;;;;;;;;;5116097;27;20052;-58
2023/10/13 16:47:42;;;;;;;18.50;7.90;;;;;;;;;;5124792;27;20054;-58
2023/10/13 16:50:10;;;;;;;20.15;8.02;;;;;;;;;;5124627;27;20048;-59
2023/10/13 16:52:37;;;;;;;18.05;8.38;;;;;;;;;;5124462;27;20131;-59
2023/10/13 16:55:04;;;;;;;19.25;7.88;;;;;;;;;;5124638;27;20047;-58
2023/10/13 16:57:31;;;;;;;15.95;7.68;;;;;;;;;;5123344;27;20595;-59
2023/10/13 16:59:57;;;;;;;17.27;7.43;;;;;;;;;;5124718;27;20594;-58
2023/10/13 17:02:24;;;;;;;17.85;8.57;;;;;;;;;;5122434;27;20408;-59
2023/10/13 17:04:50;;;;;;;17.67;7.85;;;;;;;;;;5124738;27;20052;-56
2023/10/13 17:07:18;;;;;;;19.27;8.30;;;;;;;;;;5124785;27;20456;-59
2023/10/13 17:09:45;;;;;;;22.38;8.55;;;;;;;;;;5124315;27;20097;-57
2023/10/13 17:12:12;;;;;;;20.42;8.15;;;;;;;;;;5122578;27;20482;-60
2023/10/13 17:14:40;;;;;;;20.10;8.80;;;;;;;;;;5120641;27;20051;-60
2023/10/13 17:17:08;;;;;;;19.70;8.80;;;;;;;;;;5125125;27;20043;-59
2023/10/13 17:19:34;;;;;;;20.73;9.55;;;;;;;;;;5122126;27;20476;-60
2023/10/13 17:22:03;;;;;;;16.08;8.48;;;;;;;;;;5118823;27;20697;-61
2023/10/13 17:24:31;;;;;;;17.50;8.75;;;;;;;;;;5114790;27;20044;-60
2023/10/13 17:27:01;;;;;;;19.83;9.43;;;;;;;;;;5109408;27;20056;-60
2023/10/13 17:29:28;;;;;;;19.73;9.07;;;;;;;;;;5124312;27;20068;-59
2023/10/13 17:31:55;;;;;;;19.30;9.55;;;;;;;;;;5111771;27;20048;-58
2023/10/13 17:34:21;;;;;;;18.40;9.18;;;;;;;;;;5112604;27;20502;-61
2023/10/13 17:36:48;;;;;;;20.80;9.07;;;;;;;;;;5125310;27;20048;-60
2023/10/13 17:39:17;;;;;;;16.60;8.93;;;;;;;;;;5104653;27;20059;-60
2023/10/13 17:41:44;;;;;;;17.73;9.43;;;;;;;;;;5103758;27;20052;-60
2023/10/13 17:44:10;;;;;;;16.42;9.38;;;;;;;;;;5104158;27;20056;-59
2023/10/13 17:46:39;;;;;;;15.82;9.05;;;;;;;;;;5105751;27;20600;-57
2023/10/13 17:49:06;;;;;;;18.02;9.95;;;;;;;;;;5124779;27;20082;-60
2023/10/13 17:51:33;;;;;;;21.70;10.15;;;;;;;;;;5124697;27;20054;-59
2023/10/13 17:53:59;;;;;;;21.08;9.38;;;;;;;;;;5124922;27;20082;-58
2023/10/13 17:56:26;;;;;;;15.32;9.40;;;;;;;;;;5120002;27;20051;-60
2023/10/13 17:58:53;;;;;;;16.10;9.40;;;;;;;;;;5104169;27;20105;-61
2023/10/13 18:01:20;;;;;;;19.00;8.95;;;;;;;;;;5119008;27;20063;-58
2023/10/13 18:03:50;;;;;;;15.27;8.02;;;;;;;;;;5115710;27;20056;-60
2023/10/13 18:06:17;;;;;;;23.48;9.50;;;;;;;;;;5126753;27;20075;-60
2023/10/13 18:08:44;;;;;;;20.52;10.15;;;;;;;;;;5122328;27;20059;-58
2023/10/13 18:11:14;;;;;;;24.08;9.40;;;;;;;;;;5120255;27;20096;-59
2023/10/13 18:13:41;;;;;;;16.88;8.93;;;;;;;;;;5124204;27;20062;-60
2023/10/13 18:16:19;;;;;;;16.23;9.38;;;;;;;;;;5124129;27;20051;-60
2023/10/13 18:18:47;;;;;;;16.98;9.98;;;;;;;;;;5122954;27;21074;-60
2023/10/13 18:21:14;;;;;;;15.15;9.30;;;;;;;;;;5124453;27;20504;-59
2023/10/13 18:23:42;;;;;;;20.90;9.52;;;;;;;;;;5103228;27;20838;-59
2023/10/13 18:26:11;;;;;;;18.05;10.15;;;;;;;;;;5103656;27;20137;-61
2023/10/13 18:28:38;;;;;;;19.08;9.57;;;;;;;;;;5111909;27;20585;-58